Pagrindinis puslapis
METAR-TAF:

METAR-TAF

Oro uostai :

Liublinas, Lenkija

platuma: 51-13-55N, ilguma: 22-41-25E, Aukštis: 203 m

Dabartinis oras

Ataskaita buvo paskelbta 21 minutes, ne 19:30 UTC
Vėjas 13 kt iš Vakarų
Temperatūra 1°C
Drėgmė 93%
Slėgis 1042 hPa
Matomumas 10 km arba daugiau
Apsiniaukę ne aukštis 1800 ft

METAR: EPLB 201930Z 28013KT 9999 OVC018 01/M00 Q1042

Laikas: 20:51 (19:51 UTC)

Prognozė

Ataskaita buvo paskelbta 2 valandos ir 21 minutes, ne 17:30 UTC
Prognozė galioja nuo 20 metu 18 UTC su 21 metu 03 UTC
Vėjas 12 kt iš Vakarų
Matomumas 10 km arba daugiau
Su prošvaistėmis ne aukštis 1800 ft
Tikimybė 40%
nuo 20 metu 21 UTC su 21 metu 03 UTC
Su prošvaistėmis ne aukštis 1000 ft

TAF: EPLB 201730Z 2018/2103 27012KT 9999 BKN018 PROB40 2021/2103 BKN010

Orai ataskaitas ir orų prognozės (METAR, TAF).

turimą stotys yra geltonos ir raudonos taškus žemėlapyje.

Perkelti pele per norėdami pamatyti stoties vardą.

Tada spustelėkite, norėdami matyti oro stebėjimo ir prognozės.

Norėdami pakeisti žemėlapį: spustelėkite ant žalios mygtukų su juodo kryžiaus žemyn,; žalią mygtuką su brūkšneliu, jei norite nutolinti; arba žalių rodyklių gretimoms žemėlapius.


METAR-TAF: